Atkins, Virginia
Current Conditions -  °F | °C
As of 3:35 PM on Monday 22 Dec 2014 (Local Time) from KMKJ Reporting Station
Haze Haze  
Wind Chill: 31°   Ceiling: 200
Heat Index: 37°   Visibility: 1.5mi
Dew Point: 36°   Wind: 8mph
Humidity: 95%   Direction: 70°ENE
Pressure: 30.01"   Gusts: NA
Location:  36.87°N, 81.4°W
Report Text: KMKJ 222035Z AUTO 07007KT 1 1/2SM BR OVC002 03/02 A3001 RMK AO2 T00300022
Loading
Personal Weather Stations






























Interactive Weather Map New forecast layout! Learn more

10-Day Weather Forecast

Advertisements
Track Severe Weather on mobile